Aviation Digital Data Service (ADDS)

Output produced by METARs form (0517 UTC 25 May 2018)
found at http://www.aviationweather.gov/adds/metars/
 
FSIA 250500Z 11009KT 9999 R13///// SCT015 29/25 Q1011 NOSIG
TAF FSIA 250500Z 2506/2606 15010KT 9999 SCT022 
     PROB40 
     TEMPO 2512/2516 -SHRA BKN018